Time;durP1;ratioP1;P1;durP2;ratioP2;P2;SDS_P1;SDS_P2;PMS_P1;PMS_P2;Temp;Humidity;BMP_temperature;BMP_pressure;BME280_temperature;BME280_humidity;BME280_pressure;Samples;Min_cycle;Max_cycle;Signal;HPM_P1;HPM_P2
2022/06/10 00:00:42;;;;;;;9.40;6.30;;;;;;;15.58;88.79;98244.55;106023;1277;22550;-78
2022/06/10 00:03:11;;;;;;;10.10;6.70;;;;;;;15.50;89.04;98243.27;106348;1277;23156;-77
2022/06/10 00:05:39;;;;;;;11.60;7.00;;;;;;;15.47;89.43;98254.94;106736;1276;138417;-78
2022/06/10 00:08:08;;;;;;;11.60;7.90;;;;;;;15.43;89.70;98256.98;106235;1274;22543;-78
2022/06/10 00:10:35;;;;;;;14.50;8.90;;;;;;;15.44;89.87;98258.12;106390;1274;137945;-77
2022/06/10 00:13:02;;;;;;;13.50;8.60;;;;;;;15.43;90.22;98257.30;106951;1274;22696;-78
2022/06/10 00:15:29;;;;;;;12.00;7.40;;;;;;;15.40;90.05;98255.79;106562;1274;22554;-78
2022/06/10 00:17:56;;;;;;;10.50;7.80;;;;;;;15.37;90.24;98256.50;106134;1275;139116;-77
2022/06/10 00:20:26;;;;;;;11.20;7.80;;;;;;;15.38;90.40;98253.37;106604;1277;23920;-78
2022/06/10 00:22:53;;;;;;;15.90;7.80;;;;;;;15.35;90.30;98249.27;106458;1274;138186;-78
2022/06/10 00:25:21;;;;;;;12.50;8.90;;;;;;;15.34;90.44;98245.48;105987;1277;25329;-77
2022/06/10 00:27:48;;;;;;;12.90;9.40;;;;;;;15.33;90.72;98247.64;105855;1277;138367;-77
2022/06/10 00:30:18;;;;;;;14.80;9.40;;;;;;;15.33;90.58;98251.20;106246;1277;30495;-78
2022/06/10 00:32:45;;;;;;;15.30;9.20;;;;;;;15.32;90.73;98252.30;106277;1277;22555;-77
2022/06/10 00:35:14;;;;;;;13.20;9.90;;;;;;;15.31;90.67;98252.48;106418;1277;138280;-78
2022/06/10 00:37:42;;;;;;;14.60;9.70;;;;;;;15.29;90.50;98254.02;105989;1277;22698;-77
2022/06/10 00:40:23;;;;;;;17.40;10.10;;;;;;;15.26;90.60;98251.56;106418;1277;137878;-77
2022/06/10 00:42:54;;;;;;;16.60;10.10;;;;;;;15.22;90.73;98248.67;106224;1277;22583;-77
2022/06/10 00:46:00;;;;;;;15.30;9.80;;;;;;;15.19;91.05;98246.70;106105;1277;22659;-77
2022/06/10 00:48:48;;;;;;;15.40;9.70;;;;;;;15.17;90.89;98249.07;107107;1277;22554;-78
2022/06/10 00:51:41;;;;;;;18.60;11.10;;;;;;;15.16;91.26;98249.80;106330;1274;30890;-77
2022/06/10 00:54:17;;;;;;;22.80;12.70;;;;;;;15.17;91.26;98253.63;105993;1276;137813;-77
2022/06/10 00:56:48;;;;;;;17.60;11.90;;;;;;;15.18;90.99;98260.98;105842;1277;25264;-77
2022/06/10 00:59:22;;;;;;;15.60;10.60;;;;;;;15.15;91.16;98269.88;106695;1277;137996;-77
2022/06/10 01:02:00;;;;;;;16.70;10.50;;;;;;;15.16;91.34;98276.83;106016;1277;25620;-77
2022/06/10 01:04:28;;;;;;;16.50;9.60;;;;;;;15.22;91.29;98281.64;106661;1277;138401;-78
2022/06/10 01:06:55;;;;;;;15.90;10.90;;;;;;;15.28;91.33;98286.02;106037;1280;22579;-77
2022/06/10 01:09:24;;;;;;;16.40;11.20;;;;;;;15.31;90.80;98287.31;106511;1274;25462;-77
2022/06/10 01:11:54;;;;;;;;;;;;;;;15.26;90.50;98286.73;106393;1277;138040;-77
2022/06/10 01:14:59;;;;;;;18.00;12.50;;;;;;;15.19;90.65;98292.14;106272;1277;22573;-77
2022/06/10 01:18:03;;;;;;;16.50;11.60;;;;;;;15.11;90.80;98286.73;106158;1274;137859;-77
2022/06/10 01:20:49;;;;;;;15.40;11.00;;;;;;;15.05;91.18;98274.89;105902;1275;357911;-77
2022/06/10 01:23:38;;;;;;;18.50;11.80;;;;;;;15.01;91.35;98270.85;106136;1277;138416;-77
2022/06/10 01:29:58;;;;;;;18.50;12.30;;;;;;;14.97;91.65;98260.98;105830;1277;138284;-78
2022/06/10 01:32:47;;;;;;;18.50;11.70;;;;;;;15.06;92.15;98258.11;105789;1278;30825;-78
2022/06/10 01:35:17;;;;;;;20.10;12.90;;;;;;;15.15;91.87;98256.55;106051;1277;137866;-78
2022/06/10 01:37:59;;;;;;;19.90;13.70;;;;;;;15.24;92.00;98259.25;105974;1277;25461;-78
2022/06/10 01:40:35;;;;;;;22.40;12.40;;;;;;;15.32;91.78;98261.37;106046;1275;138408;-78
2022/06/10 01:43:31;;;;;;;18.00;11.70;;;;;;;15.40;91.44;98266.43;106329;1274;22567;-78
2022/06/10 01:46:13;;;;;;;15.80;10.80;;;;;;;15.48;91.17;98264.73;106199;1274;139232;-78
2022/06/10 01:49:11;;;;;;;18.70;12.10;;;;;;;15.55;90.85;98271.18;106409;1274;22549;-77
2022/06/10 01:51:59;;;;;;;18.60;13.80;;;;;;;15.63;90.87;98268.08;106325;1274;25538;-77
2022/06/10 01:54:45;;;;;;;18.00;12.10;;;;;;;15.68;90.57;98271.50;105984;1277;25480;-78
2022/06/10 01:57:24;;;;;;;16.80;11.40;;;;;;;15.73;90.61;98279.81;106564;1274;22545;-78
2022/06/10 02:00:00;;;;;;;19.30;12.30;;;;;;;15.77;90.43;98280.34;106598;1274;138323;-78
2022/06/10 02:02:33;;;;;;;17.00;12.30;;;;;;;15.80;90.25;98280.54;106250;1277;24313;-78
2022/06/10 02:05:09;;;;;;;19.10;13.00;;;;;;;15.82;89.91;98277.71;106162;1277;137968;-78
2022/06/10 02:07:43;;;;;;;16.90;12.20;;;;;;;15.81;89.65;98282.95;105956;1277;22615;-78
2022/06/10 02:10:25;;;;;;;17.60;12.00;;;;;;;15.82;89.61;98285.23;106077;1277;138737;-78
2022/06/10 02:13:01;;;;;;;18.10;11.90;;;;;;;15.83;89.57;98288.48;106124;1277;25335;-76
2022/06/10 02:15:52;;;;;;;17.20;12.00;;;;;;;15.85;89.56;98284.73;106085;1278;25276;-77
2022/06/10 02:18:46;;;;;;;21.10;13.60;;;;;;;15.86;89.41;98287.80;106475;1277;22538;-78
2022/06/10 02:21:22;;;;;;;17.10;11.80;;;;;;;15.88;89.47;98290.70;105964;1275;24238;-77
2022/06/10 02:24:03;;;;;;;17.60;12.50;;;;;;;15.90;89.65;98284.69;105831;1277;138404;-77
2022/06/10 02:26:34;;;;;;;18.80;11.90;;;;;;;15.94;89.40;98289.45;106115;1277;24414;-78
2022/06/10 02:29:06;;;;;;;19.80;13.40;;;;;;;15.97;89.39;98293.49;106072;1277;138450;-77
2022/06/10 02:31:39;;;;;;;18.40;13.30;;;;;;;15.98;89.25;98295.75;106339;1275;25314;-77
2022/06/10 02:34:08;;;;;;;19.20;13.40;;;;;;;15.98;88.95;98300.03;105977;1274;138199;-77
2022/06/10 02:36:37;;;;;;;16.80;12.30;;;;;;;15.95;88.91;98303.02;106645;1274;25437;-77
2022/06/10 02:39:16;;;;;;;16.90;12.00;;;;;;;15.91;88.87;98301.89;106431;1274;25382;-77
2022/06/10 02:42:00;;;;;;;17.20;12.30;;;;;;;15.91;89.12;98306.11;106016;1274;138067;-77
2022/06/10 02:44:46;;;;;;;20.40;13.10;;;;;;;15.93;89.16;98312.73;105998;1277;23259;-79
2022/06/10 02:47:25;;;;;;;17.70;14.50;;;;;;;15.94;89.11;98319.06;105854;1277;137850;-77
2022/06/10 02:49:52;;;;;;;;;;;;;;;15.95;89.30;98321.47;106184;1277;26600;-77
2022/06/10 02:52:22;;;;;;;21.80;14.60;;;;;;;15.95;89.00;98319.66;106250;1274;124214;-77
2022/06/10 02:54:48;;;;;;;17.30;13.50;;;;;;;15.95;89.22;98325.60;106237;1274;24208;-78
2022/06/10 02:57:27;;;;;;;20.50;13.60;;;;;;;15.95;88.93;98322.95;106053;1275;25358;-78
2022/06/10 03:02:45;;;;;;;19.20;14.20;;;;;;;15.94;88.94;98337.39;106855;1274;24315;-78
2022/06/10 03:05:32;;;;;;;21.20;13.80;;;;;;;15.92;89.07;98340.48;105997;1277;138517;-78
2022/06/10 03:08:05;;;;;;;18.80;13.40;;;;;;;15.93;88.88;98351.91;106048;1274;24396;-78
2022/06/10 03:11:08;;;;;;;19.00;14.50;;;;;;;15.95;89.30;98351.35;105972;1274;138144;-78
2022/06/10 03:14:12;;;;;;;19.30;15.00;;;;;;;16.00;89.30;98354.02;106060;1277;22627;-78
2022/06/10 03:17:10;;;;;;;20.60;14.80;;;;;;;16.05;89.21;98352.55;105927;1275;137633;-78
2022/06/10 03:20:01;;;;;;;18.50;13.60;;;;;;;16.07;88.98;98356.33;105974;1275;22577;-78
2022/06/10 03:23:06;;;;;;;20.10;15.10;;;;;;;16.10;88.91;98359.61;106105;1275;138371;-79
2022/06/10 03:25:56;;;;;;;;;;;;;;;16.13;88.82;98362.17;106789;1277;22647;-78
2022/06/10 03:28:35;;;;;;;24.00;15.60;;;;;;;16.17;88.93;98370.63;106152;1275;123722;-78
2022/06/10 03:31:28;;;;;;;20.00;14.50;;;;;;;16.19;88.94;98369.73;105960;1277;22610;-78
2022/06/10 03:34:12;;;;;;;20.70;13.80;;;;;;;16.22;88.78;98371.48;105940;1278;138336;-78
2022/06/10 03:36:40;;;;;;;17.80;12.80;;;;;;;16.26;88.83;98368.80;106060;1275;25474;-78
2022/06/10 03:39:10;;;;;;;18.10;12.00;;;;;;;16.31;88.58;98374.33;106317;1274;24329;-78
2022/06/10 03:41:53;;;;;;;16.80;11.90;;;;;;;16.32;88.44;98379.45;106377;1274;138386;-78
2022/06/10 03:44:21;;;;;;;19.30;13.50;;;;;;;16.33;88.36;98385.86;106249;1275;22700;-78
2022/06/10 03:46:50;;;;;;;19.40;13.60;;;;;;;16.35;88.30;98388.65;106244;1274;138338;-78
2022/06/10 03:49:24;;;;;;;24.40;14.10;;;;;;;16.39;88.54;98392.80;106706;1274;25269;-78
2022/06/10 03:51:51;;;;;;;20.50;14.30;;;;;;;16.43;88.46;98391.73;106833;1274;138052;-79
2022/06/10 03:54:19;;;;;;;22.30;14.70;;;;;;;16.47;88.47;98396.88;106392;1274;22709;-79
2022/06/10 03:56:48;;;;;;;23.20;15.70;;;;;;;16.50;88.46;98401.36;107093;1277;22563;-79
2022/06/10 03:59:15;;;;;;;22.80;15.20;;;;;;;16.56;88.77;98404.16;106495;1277;138277;-78
2022/06/10 04:01:42;;;;;;;20.00;14.00;;;;;;;16.65;88.62;98403.08;106110;1277;23952;-79
2022/06/10 04:04:09;;;;;;;17.70;13.40;;;;;;;16.71;88.24;98402.42;106295;1274;138403;-79
2022/06/10 04:06:35;;;;;;;18.40;13.90;;;;;;;16.75;87.89;98404.20;106525;1274;23556;-79
2022/06/10 04:09:02;;;;;;;21.80;14.10;;;;;;;16.80;87.94;98399.71;106849;1274;23254;-79
2022/06/10 04:11:29;;;;;;;18.70;13.60;;;;;;;16.87;87.95;98405.40;106655;1274;137828;-79
2022/06/10 04:13:58;;;;;;;18.20;12.40;;;;;;;16.93;87.57;98407.71;106418;1277;23927;-79
2022/06/10 04:16:36;;;;;;;16.10;12.00;;;;;;;17.01;87.39;98412.88;106786;1274;138151;-79
2022/06/10 04:19:02;;;;;;;15.50;12.10;;;;;;;17.06;87.26;98412.55;107158;1274;22577;-79
2022/06/10 04:21:29;;;;;;;17.60;12.70;;;;;;;17.09;86.34;98414.91;106560;1278;25365;-80
2022/06/10 04:23:56;;;;;;;15.60;12.60;;;;;;;17.11;86.42;98421.82;106855;1274;137422;-80
2022/06/10 04:26:23;;;;;;;18.70;12.60;;;;;;;17.14;86.48;98421.19;106559;1274;22563;-79
2022/06/10 04:28:50;;;;;;;20.10;12.90;;;;;;;17.17;86.41;98424.57;106597;1275;138259;-80
2022/06/10 04:31:18;;;;;;;20.00;13.20;;;;;;;17.24;86.81;98421.91;106621;1275;23227;-80
2022/06/10 04:33:46;;;;;;;21.70;15.00;;;;;;;17.35;86.85;98425.29;106717;1274;138570;-80
2022/06/10 04:36:19;;;;;;;19.20;14.50;;;;;;;17.45;86.66;98431.23;106583;1277;22563;-80
2022/06/10 04:38:47;;;;;;;22.70;15.60;;;;;;;17.54;85.97;98435.39;107074;1278;22630;-79
2022/06/10 04:41:24;;;;;;;27.80;17.80;;;;;;;17.57;85.31;98435.14;106509;1276;137610;-79
2022/06/10 04:43:54;;;;;;;27.60;17.60;;;;;;;17.57;84.76;98436.90;106313;1277;24234;-79
2022/06/10 04:46:30;;;;;;;25.80;15.90;;;;;;;17.58;84.80;98437.99;106432;1277;138397;-80
2022/06/10 04:49:04;;;;;;;24.40;16.80;;;;;;;17.57;84.28;98439.88;107188;1277;22560;-80
2022/06/10 04:51:37;;;;;;;23.80;15.60;;;;;;;17.57;84.52;98441.80;106999;1274;23285;-80
2022/06/10 04:54:06;;;;;;;23.70;16.60;;;;;;;17.57;84.19;98449.52;107057;1277;138048;-80
2022/06/10 04:56:34;;;;;;;25.40;16.10;;;;;;;17.57;84.06;98452.21;107116;1274;25611;-80
2022/06/10 04:59:01;;;;;;;24.30;16.40;;;;;;;17.56;83.92;98455.63;106962;1274;138424;-80
2022/06/10 05:01:31;;;;;;;23.00;16.20;;;;;;;17.54;83.92;98462.27;106891;1274;22732;-81
2022/06/10 05:03:58;;;;;;;24.30;16.10;;;;;;;17.55;84.13;98462.64;106984;1275;138453;-81
2022/06/10 05:06:26;;;;;;;26.00;16.50;;;;;;;17.58;84.05;98462.48;107227;1275;29290;-80
2022/06/10 05:08:55;;;;;;;25.00;16.60;;;;;;;17.61;83.92;98468.09;106775;1274;25365;-81
2022/06/10 05:11:26;;;;;;;24.30;17.10;;;;;;;17.59;83.65;98472.73;107053;1274;137693;-81
2022/06/10 05:13:54;;;;;;;25.20;16.80;;;;;;;17.57;83.90;98472.15;106775;1278;24294;-81
2022/06/10 05:16:26;;;;;;;21.30;15.50;;;;;;;17.58;84.00;98479.23;107414;1274;139320;-81
2022/06/10 05:19:11;;;;;;;25.20;17.20;;;;;;;17.61;84.22;98479.82;107070;1274;25273;-81
2022/06/10 05:21:38;;;;;;;25.10;17.10;;;;;;;17.63;84.20;98488.17;106303;1275;25372;-81
2022/06/10 05:24:07;;;;;;;23.00;17.20;;;;;;;17.64;84.06;98485.61;107057;1274;137791;-81
2022/06/10 05:26:34;;;;;;;23.70;17.00;;;;;;;17.63;83.90;98491.63;107119;1277;25348;-80
2022/06/10 05:29:02;;;;;;;24.20;17.70;;;;;;;17.58;84.15;98494.21;106208;1277;137750;-81
2022/06/10 05:31:29;;;;;;;23.10;15.90;;;;;;;17.56;84.00;98494.08;106249;1277;22563;-78
2022/06/10 05:36:44;;;;;;;30.40;18.60;;;;;;;17.52;84.34;98499.02;106291;1275;22560;-81
2022/06/10 05:39:11;;;;;;;29.30;19.60;;;;;;;17.55;84.52;98500.36;106453;1274;22732;-81
2022/06/10 05:44:25;;;;;;;29.20;19.90;;;;;;;17.61;84.76;98505.48;106904;1274;22665;-80
2022/06/10 05:46:56;;;;;;;29.00;19.00;;;;;;;17.62;84.75;98508.50;106917;1274;138655;-81
2022/06/10 05:49:25;;;;;;;28.90;19.50;;;;;;;17.63;84.98;98514.55;106763;1274;22746;-80
2022/06/10 05:51:57;;;;;;;30.50;19.50;;;;;;;17.66;85.07;98516.13;106192;1274;138681;-81
2022/06/10 05:54:24;;;;;;;27.00;19.30;;;;;;;17.67;84.82;98518.33;106593;1274;24225;-81
2022/06/10 05:57:00;;;;;;;25.40;17.80;;;;;;;17.71;84.85;98521.48;106333;1277;22562;-80
2022/06/10 06:00:13;;;;;;;25.90;18.20;;;;;;;17.77;84.88;98524.66;106570;1274;138892;-81
2022/06/10 06:02:41;;;;;;;26.80;18.60;;;;;;;17.82;84.58;98522.73;107170;1275;26072;-84
2022/06/10 06:05:11;;;;;;;22.90;15.90;;;;;;;17.87;84.61;98520.58;106323;1277;138185;-82
2022/06/10 06:07:42;;;;;;;25.20;17.00;;;;;;;17.91;84.36;98521.02;107240;1277;22561;-81
2022/06/10 06:10:13;;;;;;;30.00;18.50;;;;;;;17.97;84.52;98524.59;107155;1277;138484;-82
2022/06/10 06:12:40;;;;;;;26.20;17.30;;;;;;;18.07;84.96;98528.90;106866;1274;22555;-80
2022/06/10 06:15:10;;;;;;;29.70;18.00;;;;;;;18.16;84.62;98530.13;106823;1274;22699;-82
2022/06/10 06:17:37;;;;;;;31.70;20.00;;;;;;;18.26;84.71;98525.15;106434;1277;138468;-81
2022/06/10 06:20:06;;;;;;;30.40;19.30;;;;;;;18.32;84.00;98528.88;107044;1278;25228;-81
2022/06/10 06:22:33;;;;;;;30.60;19.40;;;;;;;18.34;83.79;98530.34;106885;1277;138786;-82
2022/06/10 06:25:02;;;;;;;30.20;20.50;;;;;;;18.35;83.58;98531.38;107067;1274;22555;-83
2022/06/10 06:27:29;;;;;;;27.20;19.40;;;;;;;18.37;83.45;98529.76;106630;1277;22800;-80
2022/06/10 06:29:58;;;;;;;34.00;20.60;;;;;;;18.37;83.41;98533.40;107202;1274;138257;-82
2022/06/10 06:32:25;;;;;;;33.10;20.70;;;;;;;18.37;83.43;98534.23;106909;1277;24342;-84
2022/06/10 06:34:53;;;;;;;37.80;21.60;;;;;;;18.38;83.53;98540.89;106590;1277;137694;-81
2022/06/10 06:37:23;;;;;;;34.20;20.50;;;;;;;18.39;83.63;98542.65;107057;1274;22583;-80
2022/06/10 06:39:50;;;;;;;37.60;21.50;;;;;;;18.43;83.54;98547.02;107322;1274;139261;-81
2022/06/10 06:42:17;;;;;;;33.70;21.30;;;;;;;18.45;83.30;98552.11;107516;1274;22569;-81
2022/06/10 06:44:51;;;;;;;35.70;21.30;;;;;;;18.45;83.31;98557.14;107950;1274;22518;-81
2022/06/10 06:47:53;;;;;;;36.30;23.30;;;;;;;18.46;83.56;98562.35;107228;1272;138509;-81
2022/06/10 06:50:29;;;;;;;32.90;21.50;;;;;;;18.54;83.75;98561.38;106848;1274;22565;-81
2022/06/10 06:52:56;;;;;;;30.90;20.60;;;;;;;18.58;83.46;98564.52;106294;1274;138437;-81
2022/06/10 06:55:23;;;;;;;34.60;22.30;;;;;;;18.61;83.28;98566.65;106410;1274;24316;-82
2022/06/10 06:57:50;;;;;;;44.10;25.00;;;;;;;18.62;83.44;98567.80;106290;1274;137765;-81
2022/06/10 07:00:18;;;;;;;37.60;24.50;;;;;;;18.60;83.10;98568.86;106268;1275;22575;-82
2022/06/10 07:02:46;;;;;;;37.50;22.40;;;;;;;18.58;83.09;98570.42;106490;1274;22563;-82
2022/06/10 07:05:14;;;;;;;38.90;24.50;;;;;;;18.57;82.98;98570.92;106450;1274;138399;-82
2022/06/10 07:07:42;;;;;;;45.20;26.10;;;;;;;18.57;83.06;98575.30;106178;1277;22554;-82
2022/06/10 07:10:13;;;;;;;45.90;27.40;;;;;;;18.59;83.28;98573.95;106921;1274;137994;-82
2022/06/10 07:12:40;;;;;;;50.00;27.30;;;;;;;18.61;83.37;98577.23;106260;1274;22569;-82
2022/06/10 07:15:08;;;;;;;43.50;26.70;;;;;;;18.66;83.42;98573.77;106483;1274;22699;-81
2022/06/10 07:17:36;;;;;;;42.50;26.90;;;;;;;18.73;83.34;98578.02;106426;1274;138295;-81
2022/06/10 07:20:05;;;;;;;40.10;25.60;;;;;;;18.78;83.15;98580.33;107681;1274;22662;-81
2022/06/10 07:22:33;;;;;;;37.90;23.30;;;;;;;18.80;83.13;98578.27;106459;1277;138702;-81
2022/06/10 07:25:04;;;;;;;44.00;26.50;;;;;;;18.73;82.46;98580.56;106333;1277;26159;-81
2022/06/10 07:27:37;;;;;;;40.30;26.10;;;;;;;18.68;83.30;98582.06;106727;1277;22592;-81
2022/06/10 07:30:50;;;;;;;48.80;29.80;;;;;;;18.66;83.04;98582.48;106930;1276;137968;-81
2022/06/10 07:34:03;;;;;;;38.40;24.40;;;;;;;18.56;82.96;98587.52;106998;1277;24401;-82
2022/06/10 07:37:18;;;;;;;40.00;25.30;;;;;;;18.42;83.31;98588.55;106599;1277;22755;-82
2022/06/10 07:43:23;;;;;;;35.60;24.50;;;;;;;18.32;83.69;98592.35;107121;1277;23446;-91
2022/06/10 07:45:54;;;;;;;41.90;26.30;;;;;;;18.35;83.74;98594.20;106556;1277;138440;-84
2022/06/10 07:48:25;;;;;;;44.50;27.90;;;;;;;18.40;84.04;98596.90;106702;1276;22541;-85
2022/06/10 07:50:52;;;;;;;42.80;27.90;;;;;;;18.50;84.00;98598.66;106723;1277;22683;-84
2022/06/10 07:53:20;;;;;;;50.00;31.50;;;;;;;18.59;83.84;98596.63;106707;1274;139194;-81
2022/06/10 07:55:51;;;;;;;48.60;30.80;;;;;;;18.63;83.47;98597.85;106624;1274;22708;-92
2022/06/10 07:58:20;;;;;;;50.10;30.80;;;;;;;18.68;83.60;98601.05;106665;1274;137951;-78
2022/06/10 08:00:48;;;;;;;51.30;30.70;;;;;;;18.70;83.32;98602.45;106983;1274;23550;-86
2022/06/10 08:03:15;;;;;;;46.80;28.90;;;;;;;18.71;82.99;98599.58;106934;1274;22566;-78
2022/06/10 08:05:42;;;;;;;44.30;28.70;;;;;;;18.71;82.83;98602.59;107183;1274;139228;-82
2022/06/10 08:08:15;;;;;;;44.90;28.60;;;;;;;18.71;82.52;98604.59;107025;1274;23531;-81
2022/06/10 08:11:02;;;;;;;49.00;30.00;;;;;;;18.70;82.52;98609.30;106493;1275;138461;-81
2022/06/10 08:13:46;;;;;;;42.10;27.60;;;;;;;18.70;82.95;98604.49;106410;1277;25267;-81
2022/06/10 08:16:14;;;;;;;43.50;28.90;;;;;;;18.73;82.88;98605.50;106073;1278;138942;-81
2022/06/10 08:18:42;;;;;;;51.00;31.30;;;;;;;18.72;82.72;98610.22;106247;1277;25371;-81
2022/06/10 08:24:10;;;;;;;38.40;25.50;;;;;;;18.69;82.87;98612.78;106195;1277;137945;-81
2022/06/10 08:26:38;;;;;;;40.90;27.60;;;;;;;18.68;82.99;98616.77;106284;1274;22562;-81
2022/06/10 08:29:07;;;;;;;40.80;26.40;;;;;;;18.68;83.18;98615.60;106237;1274;138430;-83
2022/06/10 08:31:35;;;;;;;41.60;26.30;;;;;;;18.66;83.11;98617.68;106235;1274;22883;-82
2022/06/10 08:34:07;;;;;;;31.60;22.40;;;;;;;18.68;83.48;98618.64;106115;1277;138560;-82
2022/06/10 08:36:37;;;;;;;31.20;20.90;;;;;;;18.70;83.54;98621.00;106263;1274;22557;-82
2022/06/10 08:39:16;;;;;;;19.70;15.80;;;;;;;18.70;83.86;98619.40;106610;1274;25381;-82
2022/06/10 08:41:58;;;;;;;15.60;12.80;;;;;;;18.68;83.26;98624.60;106495;1274;138765;-82
2022/06/10 08:44:38;;;;;;;17.60;12.60;;;;;;;18.64;82.92;98626.73;106120;1277;22566;-81
2022/06/10 08:47:31;;;;;;;14.60;11.20;;;;;;;18.59;82.98;98631.93;106215;1274;138351;-81
2022/06/10 08:50:17;;;;;;;18.20;12.30;;;;;;;18.62;83.30;98634.38;105913;1277;22729;-81
2022/06/10 08:53:11;;;;;;;15.50;11.40;;;;;;;18.68;83.48;98637.40;106102;1274;138406;-83
2022/06/10 08:56:07;;;;;;;14.60;10.30;;;;;;;18.71;82.68;98639.58;106223;1274;22564;-82
2022/06/10 08:58:42;;;;;;;14.20;10.50;;;;;;;18.68;82.25;98637.23;106555;1274;138041;-81
2022/06/10 09:01:25;;;;;;;13.40;10.30;;;;;;;18.66;82.13;98641.73;106525;1274;31602;-82
2022/06/10 09:04:27;;;;;;;11.40;9.20;;;;;;;18.61;82.09;98644.88;106967;1274;138698;-82
2022/06/10 09:07:23;;;;;;;11.50;9.20;;;;;;;18.53;81.89;98648.39;106619;1274;22592;-82
2022/06/10 09:10:32;;;;;;;11.70;9.90;;;;;;;18.44;82.09;98647.21;106609;1274;138337;-82
2022/06/10 09:13:22;;;;;;;11.10;9.20;;;;;;;18.36;82.53;98657.98;106390;1274;30613;-81
2022/06/10 09:16:04;;;;;;;11.40;10.10;;;;;;;18.31;82.54;98661.90;106229;1274;138488;-81
2022/06/10 09:19:10;;;;;;;13.00;9.50;;;;;;;18.29;82.79;98666.73;106415;1274;25621;-82
2022/06/10 09:21:50;;;;;;;12.10;9.90;;;;;;;18.33;83.12;98669.66;106322;1275;24309;-81
2022/06/10 09:24:25;;;;;;;10.80;9.50;;;;;;;18.37;82.79;98670.00;106719;1274;30350;-81
2022/06/10 09:27:34;;;;;;;11.40;9.90;;;;;;;18.41;82.82;98670.02;106450;1274;22596;-83
2022/06/10 09:30:03;;;;;;;12.80;10.80;;;;;;;18.44;82.57;98674.06;106364;1274;138946;-82
2022/06/10 09:32:58;;;;;;;14.40;12.30;;;;;;;18.49;82.71;98670.59;106852;1274;22565;-83
2022/06/10 09:35:40;;;;;;;13.70;12.20;;;;;;;18.56;82.48;98675.70;106062;1274;138020;-81
2022/06/10 09:38:25;;;;;;;11.80;10.60;;;;;;;18.60;82.48;98681.07;106402;1274;25416;-81
2022/06/10 09:40:59;;;;;;;13.60;11.20;;;;;;;18.66;82.42;98679.20;106134;1274;138537;-81
2022/06/10 09:43:48;;;;;;;13.60;11.40;;;;;;;18.69;82.42;98680.76;106272;1274;25272;-81
2022/06/10 09:46:30;;;;;;;13.20;10.40;;;;;;;18.77;82.18;98682.92;106045;1274;139162;-81
2022/06/10 09:49:26;;;;;;;14.10;12.50;;;;;;;18.85;81.78;98683.31;106586;1274;23344;-81
2022/06/10 09:52:11;;;;;;;14.70;10.90;;;;;;;18.95;81.07;98684.62;106127;1274;138207;-81
2022/06/10 09:54:57;;;;;;;11.50;10.30;;;;;;;19.02;80.50;98688.73;106221;1274;23961;-81
2022/06/10 09:57:37;;;;;;;11.10;10.00;;;;;;;19.08;80.42;98688.49;106204;1274;24228;-81
2022/06/10 10:00:27;;;;;;;11.20;10.10;;;;;;;19.13;80.38;98687.55;106215;1276;137973;-82
2022/06/10 10:03:09;;;;;;;11.80;9.80;;;;;;;19.12;79.33;98692.20;106373;1274;22556;-82
2022/06/10 10:06:03;;;;;;;12.00;9.40;;;;;;;19.12;79.37;98689.94;106106;1274;138068;-81
2022/06/10 10:09:08;;;;;;;13.80;10.20;;;;;;;19.13;79.50;98692.46;106150;1277;22561;-82
2022/06/10 10:11:56;;;;;;;13.60;10.40;;;;;;;19.18;79.35;98694.11;106136;1274;138284;-82
2022/06/10 10:14:52;;;;;;;16.00;10.80;;;;;;;19.22;79.53;98694.33;106099;1274;25041;-82
2022/06/10 10:17:40;;;;;;;17.20;12.30;;;;;;;19.28;79.15;98695.80;106050;1275;137804;-83
2022/06/10 10:20:28;;;;;;;16.30;10.90;;;;;;;19.36;79.37;98690.84;106370;1274;25269;-82
2022/06/10 10:23:08;;;;;;;13.60;11.30;;;;;;;19.54;79.70;98698.20;106293;1275;138620;-82
2022/06/10 10:25:40;;;;;;;14.90;12.00;;;;;;;19.74;78.77;98693.12;106697;1274;31493;-82
2022/06/10 10:28:29;;;;;;;13.20;11.80;;;;;;;19.94;78.21;98695.58;106191;1274;137879;-83
2022/06/10 10:31:05;;;;;;;13.90;10.80;;;;;;;20.17;77.92;98695.77;106487;1274;25321;-82
2022/06/10 10:33:32;;;;;;;14.00;10.70;;;;;;;20.35;77.38;98696.95;106234;1274;25266;-82
2022/06/10 10:36:01;;;;;;;11.50;10.30;;;;;;;20.43;75.72;98699.02;106183;1274;138452;-82
2022/06/10 10:38:35;;;;;;;11.80;10.10;;;;;;;20.46;75.74;98699.40;106477;1274;25348;-82
2022/06/10 10:41:28;;;;;;;15.20;11.20;;;;;;;20.43;74.75;98701.06;106111;1275;138313;-80
2022/06/10 10:44:05;;;;;;;14.50;11.50;;;;;;;20.35;74.14;98703.48;106382;1274;25431;-81
2022/06/10 10:46:35;;;;;;;13.50;11.80;;;;;;;20.25;74.99;98702.70;106449;1274;137912;-82
2022/06/10 10:49:23;;;;;;;12.50;10.90;;;;;;;20.19;74.63;98703.80;106606;1274;22543;-83
2022/06/10 10:51:54;;;;;;;14.40;11.70;;;;;;;20.08;74.93;98706.54;106394;1274;138293;-81
2022/06/10 10:54:30;;;;;;;14.10;11.80;;;;;;;19.98;75.07;98707.73;106361;1274;25496;-81
2022/06/10 10:56:59;;;;;;;12.90;11.60;;;;;;;19.97;75.80;98701.78;107220;1274;22571;-81
2022/06/10 11:00:12;;;;;;;16.10;10.60;;;;;;;20.04;75.58;98700.19;106999;1274;137824;-80
2022/06/10 11:02:48;;;;;;;11.30;9.90;;;;;;;20.21;75.45;98699.02;106928;1274;23363;-83
2022/06/10 11:05:47;;;;;;;11.60;9.60;;;;;;;20.42;74.86;98699.13;106810;1275;138376;-83
2022/06/10 11:08:28;;;;;;;12.00;9.90;;;;;;;20.64;74.08;98698.04;106707;1274;22595;-82
2022/06/10 11:11:11;;;;;;;13.90;10.50;;;;;;;20.82;74.13;98692.94;106722;1274;137742;-82
2022/06/10 11:13:44;;;;;;;12.10;10.00;;;;;;;21.01;73.13;98684.98;106774;1275;22648;-83
2022/06/10 11:16:36;;;;;;;11.20;9.80;;;;;;;21.19;72.91;98690.27;106889;1274;138913;-83
2022/06/10 11:19:26;;;;;;;11.50;9.40;;;;;;;21.26;71.88;98690.58;107173;1274;25393;-83
2022/06/10 11:22:10;;;;;;;11.50;9.40;;;;;;;21.15;71.65;98696.21;106996;1274;137711;-83
2022/06/10 11:25:22;;;;;;;14.30;10.70;;;;;;;21.01;72.66;98697.27;106925;1277;24270;-81
2022/06/10 11:27:50;;;;;;;13.90;11.00;;;;;;;20.86;73.02;98710.14;106689;1277;138141;-83
2022/06/10 11:30:23;;;;;;;12.00;10.00;;;;;;;20.69;72.73;98708.41;106517;1277;22563;-83
2022/06/10 11:32:51;;;;;;;12.40;10.90;;;;;;;20.54;73.09;98710.77;106162;1277;22544;-82
2022/06/10 11:35:27;;;;;;;12.00;10.80;;;;;;;20.43;73.66;98712.73;106050;1277;137803;-82
2022/06/10 11:38:15;;;;;;;11.90;10.70;;;;;;;20.35;73.36;98704.30;106200;1272;24204;-83
2022/06/10 11:41:23;;;;;;;10.70;9.70;;;;;;;20.36;73.85;98706.23;106475;1274;138544;-81
2022/06/10 11:43:56;;;;;;;;;;;;;;;20.41;74.05;98705.75;106475;1274;22536;-79
2022/06/10 11:46:28;;;;;;;11.70;10.50;;;;;;;20.42;74.47;98705.61;106125;1274;124109;-85
2022/06/10 11:49:24;;;;;;;10.30;8.50;;;;;;;20.41;73.41;98705.20;106421;1274;22609;-82
2022/06/10 11:52:35;;;;;;;12.80;10.10;;;;;;;20.38;73.29;98707.19;106264;1274;138390;-82
2022/06/10 11:55:15;;;;;;;13.00;10.30;;;;;;;20.36;73.81;98708.27;106345;1274;23056;-84
2022/06/10 12:01:20;;;;;;;13.90;9.90;;;;;;;20.26;75.05;98711.27;106347;1274;25344;-83
2022/06/10 12:04:06;;;;;;;12.50;11.10;;;;;;;20.22;74.82;98715.15;106452;1274;138176;-83
2022/06/10 12:06:53;;;;;;;11.60;10.30;;;;;;;20.21;75.25;98714.28;106624;1274;23764;-83
2022/06/10 12:10:11;;;;;;;12.50;9.30;;;;;;;20.25;74.79;98712.27;106742;1274;23236;-84
2022/06/10 12:12:42;;;;;;;10.00;9.00;;;;;;;20.33;74.80;98710.16;106622;1274;22647;-80
2022/06/10 12:15:30;;;;;;;11.60;9.20;;;;;;;20.42;74.26;98712.91;106122;1274;27090;-80
2022/06/10 12:18:04;;;;;;;12.70;10.30;;;;;;;20.42;74.39;98713.48;106196;1277;137649;-81